sensor_id;sensor_type;location;lat;lon;timestamp;P1;durP1;ratioP1;P2;durP2;ratioP2
58152;SDS011;43967;51.634;5.566;2023-09-19T00:01:40;6.97;;;1.53;;
58152;SDS011;43967;51.634;5.566;2023-09-19T00:07:02;7.18;;;2.10;;
58152;SDS011;43967;51.634;5.566;2023-09-19T00:12:23;6.38;;;1.60;;
58152;SDS011;43967;51.634;5.566;2023-09-19T00:17:44;6.50;;;1.70;;
58152;SDS011;43967;51.634;5.566;2023-09-19T00:23:06;6.20;;;1.75;;
58152;SDS011;43967;51.634;5.566;2023-09-19T00:28:27;5.20;;;1.50;;
58152;SDS011;43967;51.634;5.566;2023-09-19T00:33:48;7.13;;;1.70;;
58152;SDS011;43967;51.634;5.566;2023-09-19T00:39:09;6.80;;;1.80;;
58152;SDS011;43967;51.634;5.566;2023-09-19T00:44:31;6.40;;;1.52;;
58152;SDS011;43967;51.634;5.566;2023-09-19T00:49:52;7.05;;;1.80;;
58152;SDS011;43967;51.634;5.566;2023-09-19T00:55:14;6.70;;;1.67;;
58152;SDS011;43967;51.634;5.566;2023-09-19T01:00:36;7.07;;;1.50;;
58152;SDS011;43967;51.634;5.566;2023-09-19T01:05:59;5.90;;;1.70;;
58152;SDS011;43967;51.634;5.566;2023-09-19T01:11:42;6.20;;;1.77;;
58152;SDS011;43967;51.634;5.566;2023-09-19T01:17:09;6.00;;;1.73;;
58152;SDS011;43967;51.634;5.566;2023-09-19T01:28:30;5.53;;;1.63;;
58152;SDS011;43967;51.634;5.566;2023-09-19T01:34:17;6.80;;;1.63;;
58152;SDS011;43967;51.634;5.566;2023-09-19T01:39:38;6.25;;;2.00;;
58152;SDS011;43967;51.634;5.566;2023-09-19T01:45:05;6.00;;;1.45;;
58152;SDS011;43967;51.634;5.566;2023-09-19T01:50:54;6.53;;;1.67;;
58152;SDS011;43967;51.634;5.566;2023-09-19T01:56:21;6.63;;;1.92;;
58152;SDS011;43967;51.634;5.566;2023-09-19T02:01:48;6.60;;;1.58;;
58152;SDS011;43967;51.634;5.566;2023-09-19T02:07:12;7.73;;;1.50;;
58152;SDS011;43967;51.634;5.566;2023-09-19T02:12:34;7.18;;;1.70;;
58152;SDS011;43967;51.634;5.566;2023-09-19T02:17:55;6.60;;;1.70;;
58152;SDS011;43967;51.634;5.566;2023-09-19T02:23:16;6.60;;;1.60;;
58152;SDS011;43967;51.634;5.566;2023-09-19T02:28:37;6.80;;;1.70;;
58152;SDS011;43967;51.634;5.566;2023-09-19T02:33:59;8.20;;;1.70;;
58152;SDS011;43967;51.634;5.566;2023-09-19T02:39:20;7.33;;;1.70;;
58152;SDS011;43967;51.634;5.566;2023-09-19T02:44:41;7.03;;;1.70;;
58152;SDS011;43967;51.634;5.566;2023-09-19T02:50:03;6.38;;;1.58;;
58152;SDS011;43967;51.634;5.566;2023-09-19T02:55:24;7.10;;;1.60;;
58152;SDS011;43967;51.634;5.566;2023-09-19T03:00:46;5.70;;;1.67;;
58152;SDS011;43967;51.634;5.566;2023-09-19T03:06:07;6.55;;;1.60;;
58152;SDS011;43967;51.634;5.566;2023-09-19T03:11:28;8.35;;;1.58;;
58152;SDS011;43967;51.634;5.566;2023-09-19T03:16:50;5.33;;;1.40;;
58152;SDS011;43967;51.634;5.566;2023-09-19T03:22:11;6.00;;;1.52;;
58152;SDS011;43967;51.634;5.566;2023-09-19T03:27:32;6.75;;;1.83;;
58152;SDS011;43967;51.634;5.566;2023-09-19T03:32:53;6.13;;;1.63;;
58152;SDS011;43967;51.634;5.566;2023-09-19T03:38:15;7.32;;;1.70;;
58152;SDS011;43967;51.634;5.566;2023-09-19T03:43:36;6.25;;;1.60;;
58152;SDS011;43967;51.634;5.566;2023-09-19T03:48:57;5.70;;;1.40;;
58152;SDS011;43967;51.634;5.566;2023-09-19T03:54:18;6.47;;;1.50;;
58152;SDS011;43967;51.634;5.566;2023-09-19T03:59:40;6.32;;;1.30;;
58152;SDS011;43967;51.634;5.566;2023-09-19T04:05:01;6.68;;;1.60;;
58152;SDS011;43967;51.634;5.566;2023-09-19T04:10:22;6.13;;;1.53;;
58152;SDS011;43967;51.634;5.566;2023-09-19T04:15:44;6.32;;;1.60;;
58152;SDS011;43967;51.634;5.566;2023-09-19T04:21:05;6.55;;;1.60;;
58152;SDS011;43967;51.634;5.566;2023-09-19T04:26:26;7.93;;;1.93;;
58152;SDS011;43967;51.634;5.566;2023-09-19T04:31:47;6.13;;;1.60;;
58152;SDS011;43967;51.634;5.566;2023-09-19T04:37:09;5.70;;;1.35;;
58152;SDS011;43967;51.634;5.566;2023-09-19T04:42:30;6.73;;;1.60;;
58152;SDS011;43967;51.634;5.566;2023-09-19T04:47:51;7.67;;;1.77;;
58152;SDS011;43967;51.634;5.566;2023-09-19T04:53:13;6.90;;;1.75;;
58152;SDS011;43967;51.634;5.566;2023-09-19T04:58:34;6.35;;;1.55;;
58152;SDS011;43967;51.634;5.566;2023-09-19T05:03:55;6.93;;;1.60;;
58152;SDS011;43967;51.634;5.566;2023-09-19T05:09:17;6.15;;;1.60;;
58152;SDS011;43967;51.634;5.566;2023-09-19T05:14:38;7.18;;;1.65;;
58152;SDS011;43967;51.634;5.566;2023-09-19T05:19:59;8.93;;;1.80;;
58152;SDS011;43967;51.634;5.566;2023-09-19T05:25:24;6.03;;;1.38;;
58152;SDS011;43967;51.634;5.566;2023-09-19T05:30:45;7.15;;;1.55;;
58152;SDS011;43967;51.634;5.566;2023-09-19T05:36:06;7.20;;;1.80;;
58152;SDS011;43967;51.634;5.566;2023-09-19T05:41:28;7.77;;;1.80;;
58152;SDS011;43967;51.634;5.566;2023-09-19T05:46:49;9.15;;;2.10;;
58152;SDS011;43967;51.634;5.566;2023-09-19T05:52:10;9.65;;;1.98;;
58152;SDS011;43967;51.634;5.566;2023-09-19T05:57:31;8.90;;;1.80;;
58152;SDS011;43967;51.634;5.566;2023-09-19T06:02:53;10.55;;;2.13;;
58152;SDS011;43967;51.634;5.566;2023-09-19T06:08:15;11.05;;;2.17;;
58152;SDS011;43967;51.634;5.566;2023-09-19T06:13:37;9.87;;;1.80;;
58152;SDS011;43967;51.634;5.566;2023-09-19T06:18:58;8.30;;;1.95;;
58152;SDS011;43967;51.634;5.566;2023-09-19T06:24:19;10.48;;;2.25;;
58152;SDS011;43967;51.634;5.566;2023-09-19T06:29:40;10.17;;;2.07;;
58152;SDS011;43967;51.634;5.566;2023-09-19T06:35:02;9.17;;;2.00;;
58152;SDS011;43967;51.634;5.566;2023-09-19T06:40:23;9.02;;;1.98;;
58152;SDS011;43967;51.634;5.566;2023-09-19T06:45:45;8.23;;;1.92;;
58152;SDS011;43967;51.634;5.566;2023-09-19T06:51:06;10.93;;;2.40;;
58152;SDS011;43967;51.634;5.566;2023-09-19T06:56:28;7.95;;;2.25;;
58152;SDS011;43967;51.634;5.566;2023-09-19T07:01:49;8.25;;;1.98;;
58152;SDS011;43967;51.634;5.566;2023-09-19T07:07:10;10.37;;;2.07;;
58152;SDS011;43967;51.634;5.566;2023-09-19T07:12:32;9.63;;;2.05;;
58152;SDS011;43967;51.634;5.566;2023-09-19T07:17:53;9.52;;;1.85;;
58152;SDS011;43967;51.634;5.566;2023-09-19T07:23:16;9.33;;;1.83;;
58152;SDS011;43967;51.634;5.566;2023-09-19T07:28:40;7.30;;;2.23;;
58152;SDS011;43967;51.634;5.566;2023-09-19T07:34:02;8.98;;;1.80;;
58152;SDS011;43967;51.634;5.566;2023-09-19T07:39:23;7.88;;;1.80;;
58152;SDS011;43967;51.634;5.566;2023-09-19T07:44:44;8.67;;;1.83;;
58152;SDS011;43967;51.634;5.566;2023-09-19T07:50:06;8.05;;;2.00;;
58152;SDS011;43967;51.634;5.566;2023-09-19T07:55:27;7.25;;;1.50;;
58152;SDS011;43967;51.634;5.566;2023-09-19T08:00:48;7.70;;;1.80;;
58152;SDS011;43967;51.634;5.566;2023-09-19T08:06:09;10.18;;;2.05;;
58152;SDS011;43967;51.634;5.566;2023-09-19T08:11:31;7.70;;;1.80;;
58152;SDS011;43967;51.634;5.566;2023-09-19T08:16:55;8.23;;;1.87;;
58152;SDS011;43967;51.634;5.566;2023-09-19T08:22:17;6.37;;;1.43;;
58152;SDS011;43967;51.634;5.566;2023-09-19T08:27:40;7.70;;;1.60;;
58152;SDS011;43967;51.634;5.566;2023-09-19T08:33:01;7.10;;;1.70;;
58152;SDS011;43967;51.634;5.566;2023-09-19T08:38:22;8.33;;;1.57;;
58152;SDS011;43967;51.634;5.566;2023-09-19T08:43:44;7.93;;;1.90;;
58152;SDS011;43967;51.634;5.566;2023-09-19T08:49:07;8.77;;;1.90;;
58152;SDS011;43967;51.634;5.566;2023-09-19T08:54:37;7.17;;;1.57;;
58152;SDS011;43967;51.634;5.566;2023-09-19T09:00:01;7.55;;;1.70;;
58152;SDS011;43967;51.634;5.566;2023-09-19T09:05:23;8.07;;;2.00;;
58152;SDS011;43967;51.634;5.566;2023-09-19T09:10:45;6.30;;;1.50;;
58152;SDS011;43967;51.634;5.566;2023-09-19T09:16:06;7.97;;;1.90;;
58152;SDS011;43967;51.634;5.566;2023-09-19T09:21:28;7.63;;;1.50;;
58152;SDS011;43967;51.634;5.566;2023-09-19T09:26:49;6.38;;;1.60;;
58152;SDS011;43967;51.634;5.566;2023-09-19T09:37:41;6.57;;;1.58;;
58152;SDS011;43967;51.634;5.566;2023-09-19T09:43:07;6.22;;;1.50;;
58152;SDS011;43967;51.634;5.566;2023-09-19T09:54:23;8.07;;;1.85;;
58152;SDS011;43967;51.634;5.566;2023-09-19T09:59:51;7.38;;;1.70;;
58152;SDS011;43967;51.634;5.566;2023-09-19T10:05:16;7.20;;;1.70;;
58152;SDS011;43967;51.634;5.566;2023-09-19T10:10:38;7.20;;;1.90;;
58152;SDS011;43967;51.634;5.566;2023-09-19T10:16:00;7.78;;;1.70;;
58152;SDS011;43967;51.634;5.566;2023-09-19T10:21:28;7.55;;;1.65;;
58152;SDS011;43967;51.634;5.566;2023-09-19T10:26:50;7.30;;;1.73;;
58152;SDS011;43967;51.634;5.566;2023-09-19T10:32:12;6.13;;;1.67;;
58152;SDS011;43967;51.634;5.566;2023-09-19T10:37:36;7.30;;;1.80;;
58152;SDS011;43967;51.634;5.566;2023-09-19T10:43:00;6.00;;;1.57;;
58152;SDS011;43967;51.634;5.566;2023-09-19T10:48:25;6.65;;;1.75;;
58152;SDS011;43967;51.634;5.566;2023-09-19T10:53:48;8.60;;;2.00;;
58152;SDS011;43967;51.634;5.566;2023-09-19T10:59:14;8.00;;;2.03;;
58152;SDS011;43967;51.634;5.566;2023-09-19T11:04:36;6.40;;;1.60;;
58152;SDS011;43967;51.634;5.566;2023-09-19T11:09:59;6.60;;;1.80;;
58152;SDS011;43967;51.634;5.566;2023-09-19T11:26:49;7.00;;;1.70;;
58152;SDS011;43967;51.634;5.566;2023-09-19T11:32:10;6.07;;;1.50;;
58152;SDS011;43967;51.634;5.566;2023-09-19T11:42:52;7.00;;;1.77;;
58152;SDS011;43967;51.634;5.566;2023-09-19T11:48:14;6.47;;;1.50;;
58152;SDS011;43967;51.634;5.566;2023-09-19T11:53:38;6.63;;;1.67;;
58152;SDS011;43967;51.634;5.566;2023-09-19T11:59:00;6.33;;;1.63;;
58152;SDS011;43967;51.634;5.566;2023-09-19T12:04:21;6.32;;;1.80;;
58152;SDS011;43967;51.634;5.566;2023-09-19T12:10:03;7.90;;;1.65;;
58152;SDS011;43967;51.634;5.566;2023-09-19T12:15:25;6.07;;;1.50;;
58152;SDS011;43967;51.634;5.566;2023-09-19T12:20:48;6.55;;;1.67;;
58152;SDS011;43967;51.634;5.566;2023-09-19T12:26:09;7.40;;;1.42;;
58152;SDS011;43967;51.634;5.566;2023-09-19T12:31:31;7.20;;;1.60;;
58152;SDS011;43967;51.634;5.566;2023-09-19T12:37:05;6.18;;;1.75;;
58152;SDS011;43967;51.634;5.566;2023-09-19T12:42:26;7.35;;;1.65;;
58152;SDS011;43967;51.634;5.566;2023-09-19T12:53:45;7.07;;;1.77;;
58152;SDS011;43967;51.634;5.566;2023-09-19T12:59:07;6.03;;;1.60;;
58152;SDS011;43967;51.634;5.566;2023-09-19T13:04:28;6.32;;;1.30;;
58152;SDS011;43967;51.634;5.566;2023-09-19T13:10:02;5.97;;;1.30;;
58152;SDS011;43967;51.634;5.566;2023-09-19T13:15:24;5.13;;;1.23;;
58152;SDS011;43967;51.634;5.566;2023-09-19T13:21:05;5.65;;;1.50;;
58152;SDS011;43967;51.634;5.566;2023-09-19T13:26:27;5.77;;;1.30;;
58152;SDS011;43967;51.634;5.566;2023-09-19T13:31:48;6.07;;;1.40;;
58152;SDS011;43967;51.634;5.566;2023-09-19T13:37:10;5.50;;;1.38;;
58152;SDS011;43967;51.634;5.566;2023-09-19T13:42:31;5.80;;;1.20;;
58152;SDS011;43967;51.634;5.566;2023-09-19T13:47:53;5.83;;;1.30;;
58152;SDS011;43967;51.634;5.566;2023-09-19T13:53:14;5.22;;;1.38;;
58152;SDS011;43967;51.634;5.566;2023-09-19T13:58:35;6.05;;;1.52;;
58152;SDS011;43967;51.634;5.566;2023-09-19T14:03:57;5.97;;;1.50;;
58152;SDS011;43967;51.634;5.566;2023-09-19T14:09:18;6.13;;;1.60;;
58152;SDS011;43967;51.634;5.566;2023-09-19T14:14:39;6.45;;;1.90;;
58152;SDS011;43967;51.634;5.566;2023-09-19T14:20:01;5.40;;;1.37;;
58152;SDS011;43967;51.634;5.566;2023-09-19T14:25:22;5.28;;;1.30;;
58152;SDS011;43967;51.634;5.566;2023-09-19T14:30:43;5.00;;;1.20;;
58152;SDS011;43967;51.634;5.566;2023-09-19T14:36:05;5.57;;;1.30;;
58152;SDS011;43967;51.634;5.566;2023-09-19T14:41:27;6.37;;;1.40;;
58152;SDS011;43967;51.634;5.566;2023-09-19T14:46:49;6.47;;;1.52;;
58152;SDS011;43967;51.634;5.566;2023-09-19T14:52:11;6.38;;;1.65;;
58152;SDS011;43967;51.634;5.566;2023-09-19T14:57:32;6.03;;;1.50;;
58152;SDS011;43967;51.634;5.566;2023-09-19T15:02:53;6.50;;;1.40;;
58152;SDS011;43967;51.634;5.566;2023-09-19T15:08:15;5.75;;;1.45;;
58152;SDS011;43967;51.634;5.566;2023-09-19T15:13:36;4.83;;;1.30;;
58152;SDS011;43967;51.634;5.566;2023-09-19T15:18:57;5.55;;;1.30;;
58152;SDS011;43967;51.634;5.566;2023-09-19T15:24:19;7.68;;;1.63;;
58152;SDS011;43967;51.634;5.566;2023-09-19T15:29:40;6.90;;;1.73;;
58152;SDS011;43967;51.634;5.566;2023-09-19T15:35:01;5.57;;;1.60;;
58152;SDS011;43967;51.634;5.566;2023-09-19T15:40:22;6.40;;;1.55;;
58152;SDS011;43967;51.634;5.566;2023-09-19T15:45:44;6.18;;;1.60;;
58152;SDS011;43967;51.634;5.566;2023-09-19T15:51:05;6.87;;;1.60;;
58152;SDS011;43967;51.634;5.566;2023-09-19T15:56:26;6.88;;;1.83;;
58152;SDS011;43967;51.634;5.566;2023-09-19T16:01:48;7.72;;;1.90;;
58152;SDS011;43967;51.634;5.566;2023-09-19T16:07:09;7.53;;;1.90;;
58152;SDS011;43967;51.634;5.566;2023-09-19T16:12:30;8.85;;;1.70;;
58152;SDS011;43967;51.634;5.566;2023-09-19T16:17:51;9.30;;;2.30;;
58152;SDS011;43967;51.634;5.566;2023-09-19T16:23:13;10.27;;;2.50;;
58152;SDS011;43967;51.634;5.566;2023-09-19T16:28:37;12.00;;;2.07;;
58152;SDS011;43967;51.634;5.566;2023-09-19T16:33:58;9.82;;;2.10;;
58152;SDS011;43967;51.634;5.566;2023-09-19T16:39:20;7.95;;;1.85;;
58152;SDS011;43967;51.634;5.566;2023-09-19T16:44:41;8.10;;;1.90;;
58152;SDS011;43967;51.634;5.566;2023-09-19T16:50:02;7.22;;;1.67;;
58152;SDS011;43967;51.634;5.566;2023-09-19T16:55:24;8.00;;;1.80;;
58152;SDS011;43967;51.634;5.566;2023-09-19T17:00:45;8.13;;;2.00;;
58152;SDS011;43967;51.634;5.566;2023-09-19T17:06:10;8.88;;;2.08;;
58152;SDS011;43967;51.634;5.566;2023-09-19T17:11:33;7.43;;;1.60;;
58152;SDS011;43967;51.634;5.566;2023-09-19T17:16:54;8.20;;;2.03;;
58152;SDS011;43967;51.634;5.566;2023-09-19T17:22:15;7.03;;;2.03;;
58152;SDS011;43967;51.634;5.566;2023-09-19T17:27:36;7.82;;;1.98;;
58152;SDS011;43967;51.634;5.566;2023-09-19T17:32:58;8.45;;;2.58;;
58152;SDS011;43967;51.634;5.566;2023-09-19T17:38:19;6.20;;;1.67;;
58152;SDS011;43967;51.634;5.566;2023-09-19T17:43:40;8.93;;;1.98;;
58152;SDS011;43967;51.634;5.566;2023-09-19T17:49:05;7.68;;;1.80;;
58152;SDS011;43967;51.634;5.566;2023-09-19T17:54:27;7.87;;;1.80;;
58152;SDS011;43967;51.634;5.566;2023-09-19T17:59:48;9.40;;;2.03;;
58152;SDS011;43967;51.634;5.566;2023-09-19T18:05:09;8.75;;;1.88;;
58152;SDS011;43967;51.634;5.566;2023-09-19T18:10:31;6.40;;;1.90;;
58152;SDS011;43967;51.634;5.566;2023-09-19T18:15:57;7.23;;;2.07;;
58152;SDS011;43967;51.634;5.566;2023-09-19T18:21:18;8.00;;;1.77;;
58152;SDS011;43967;51.634;5.566;2023-09-19T18:26:40;8.00;;;2.10;;
58152;SDS011;43967;51.634;5.566;2023-09-19T18:32:02;6.60;;;1.53;;
58152;SDS011;43967;51.634;5.566;2023-09-19T18:37:23;6.63;;;1.67;;
58152;SDS011;43967;51.634;5.566;2023-09-19T18:42:44;6.63;;;1.48;;
58152;SDS011;43967;51.634;5.566;2023-09-19T18:48:06;6.93;;;1.80;;
58152;SDS011;43967;51.634;5.566;2023-09-19T18:53:27;7.07;;;1.70;;
58152;SDS011;43967;51.634;5.566;2023-09-19T18:58:51;7.60;;;1.95;;
58152;SDS011;43967;51.634;5.566;2023-09-19T19:04:12;8.07;;;2.07;;
58152;SDS011;43967;51.634;5.566;2023-09-19T19:09:34;7.50;;;1.80;;
58152;SDS011;43967;51.634;5.566;2023-09-19T19:14:55;8.82;;;2.30;;
58152;SDS011;43967;51.634;5.566;2023-09-19T19:20:16;7.68;;;2.25;;
58152;SDS011;43967;51.634;5.566;2023-09-19T19:25:45;8.80;;;2.00;;
58152;SDS011;43967;51.634;5.566;2023-09-19T19:31:07;8.77;;;2.25;;
58152;SDS011;43967;51.634;5.566;2023-09-19T19:36:29;6.35;;;1.75;;
58152;SDS011;43967;51.634;5.566;2023-09-19T19:41:51;9.07;;;1.90;;
58152;SDS011;43967;51.634;5.566;2023-09-19T19:47:12;7.13;;;1.83;;
58152;SDS011;43967;51.634;5.566;2023-09-19T19:52:33;8.55;;;2.03;;
58152;SDS011;43967;51.634;5.566;2023-09-19T19:57:55;6.03;;;1.60;;
58152;SDS011;43967;51.634;5.566;2023-09-19T20:03:17;8.40;;;2.03;;
58152;SDS011;43967;51.634;5.566;2023-09-19T20:08:38;6.85;;;1.98;;
58152;SDS011;43967;51.634;5.566;2023-09-19T20:13:59;7.70;;;2.05;;
58152;SDS011;43967;51.634;5.566;2023-09-19T20:19:21;9.10;;;2.10;;
58152;SDS011;43967;51.634;5.566;2023-09-19T20:24:42;8.45;;;1.88;;
58152;SDS011;43967;51.634;5.566;2023-09-19T20:30:03;7.10;;;1.70;;
58152;SDS011;43967;51.634;5.566;2023-09-19T20:35:25;8.03;;;2.00;;
58152;SDS011;43967;51.634;5.566;2023-09-19T20:40:47;6.68;;;1.85;;
58152;SDS011;43967;51.634;5.566;2023-09-19T20:46:08;5.93;;;1.50;;
58152;SDS011;43967;51.634;5.566;2023-09-19T20:51:29;7.00;;;1.87;;
58152;SDS011;43967;51.634;5.566;2023-09-19T20:56:51;6.87;;;1.57;;
58152;SDS011;43967;51.634;5.566;2023-09-19T21:02:12;6.20;;;1.80;;
58152;SDS011;43967;51.634;5.566;2023-09-19T21:07:33;6.68;;;2.03;;
58152;SDS011;43967;51.634;5.566;2023-09-19T21:12:54;7.03;;;2.10;;
58152;SDS011;43967;51.634;5.566;2023-09-19T21:18:16;6.32;;;1.70;;
58152;SDS011;43967;51.634;5.566;2023-09-19T21:23:37;7.43;;;1.90;;
58152;SDS011;43967;51.634;5.566;2023-09-19T21:29:00;6.30;;;1.73;;
58152;SDS011;43967;51.634;5.566;2023-09-19T21:34:21;6.43;;;1.70;;
58152;SDS011;43967;51.634;5.566;2023-09-19T21:39:42;6.20;;;1.88;;
58152;SDS011;43967;51.634;5.566;2023-09-19T21:45:04;6.40;;;2.00;;
58152;SDS011;43967;51.634;5.566;2023-09-19T21:50:25;6.50;;;1.90;;
58152;SDS011;43967;51.634;5.566;2023-09-19T21:55:46;6.47;;;2.00;;
58152;SDS011;43967;51.634;5.566;2023-09-19T22:01:08;6.40;;;1.58;;
58152;SDS011;43967;51.634;5.566;2023-09-19T22:06:29;6.87;;;1.70;;
58152;SDS011;43967;51.634;5.566;2023-09-19T22:11:50;6.88;;;1.83;;
58152;SDS011;43967;51.634;5.566;2023-09-19T22:17:11;6.47;;;1.70;;
58152;SDS011;43967;51.634;5.566;2023-09-19T22:22:33;6.47;;;1.63;;
58152;SDS011;43967;51.634;5.566;2023-09-19T22:27:54;6.10;;;1.63;;
58152;SDS011;43967;51.634;5.566;2023-09-19T22:33:16;7.38;;;2.05;;
58152;SDS011;43967;51.634;5.566;2023-09-19T22:38:37;5.70;;;1.70;;
58152;SDS011;43967;51.634;5.566;2023-09-19T22:43:59;6.73;;;2.00;;
58152;SDS011;43967;51.634;5.566;2023-09-19T22:49:20;6.18;;;2.03;;
58152;SDS011;43967;51.634;5.566;2023-09-19T22:54:41;5.68;;;1.77;;
58152;SDS011;43967;51.634;5.566;2023-09-19T23:00:02;6.37;;;1.63;;
58152;SDS011;43967;51.634;5.566;2023-09-19T23:05:24;7.03;;;1.98;;
58152;SDS011;43967;51.634;5.566;2023-09-19T23:10:45;6.68;;;1.60;;
58152;SDS011;43967;51.634;5.566;2023-09-19T23:16:07;5.77;;;1.57;;
58152;SDS011;43967;51.634;5.566;2023-09-19T23:21:28;7.45;;;1.70;;
58152;SDS011;43967;51.634;5.566;2023-09-19T23:26:49;5.95;;;1.58;;
58152;SDS011;43967;51.634;5.566;2023-09-19T23:32:10;6.33;;;1.90;;
58152;SDS011;43967;51.634;5.566;2023-09-19T23:37:32;7.10;;;1.90;;
58152;SDS011;43967;51.634;5.566;2023-09-19T23:42:55;6.47;;;1.80;;
58152;SDS011;43967;51.634;5.566;2023-09-19T23:48:16;5.50;;;1.80;;
58152;SDS011;43967;51.634;5.566;2023-09-19T23:53:37;5.43;;;1.30;;
58152;SDS011;43967;51.634;5.566;2023-09-19T23:58:59;5.43;;;1.60;;
